Resums METAR propers

 

LEGE - Gerona/Costa Bra, Spain
DistÓncia des de l'estaciˇ: S 12km
Actualitzaciˇ: 20/09/2020 22:00
Alguns n˙vols
Alguns n˙vols
 Vent del calm
Vent: Calma
Temperatura: 64°F , 18°C
Rosada: 63°F , 17°C
Humitat: 94%
Bar˛metre: 1016 hPa
Nuvolositat: Alguns n˙vols
Visibilitat: 10 km
Detalls nuvolositat: Alguns n˙vols 4000 ft
2020/09/20 20:00 LEGE 202000Z 00000KT 9999 FEW040 18/17 Q1016